Wetterdaten: Woche 01.04.13 - 07.04.13 (KW14)
Datum Zeit Temp. A. Feuchte A. Luftdruck Regen Wind Richtung Taupunkt Windchill Windben
01.04.2013 00:00 -2,8 C 85 % 1013,0 hPa 0,0 l/m 0,9 km/h (0 Bft) N -4,9 C -2,8 C 1,3 km/h (1 Bft)
01.04.2013 01:00 -3,5 C 87 % 1012,8 hPa 0,0 l/m 0,6 km/h (0 Bft) N -5,4 C -3,5 C 0,8 km/h (0 Bft)
01.04.2013 02:00 -3,7 C 86 % 1012,8 hPa 0,0 l/m 2,3 km/h (1 Bft) N -5,7 C -3,7 C 3,5 km/h (1 Bft)
01.04.2013 03:00 -5,0 C 87 % 1012,8 hPa 0,0 l/m 0,0 km/h (0 Bft) N -6,8 C -5,0 C 0,0 km/h (0 Bft)
01.04.2013 04:00 -5,7 C 89 % 1012,6 hPa 0,0 l/m 0,0 km/h (0 Bft) N -7,2 C -5,7 C 0,0 km/h (0 Bft)
01.04.2013 05:00 -6,3 C 90 % 1012,2 hPa 0,0 l/m 0,0 km/h (0 Bft) N -7,7 C -6,3 C 0,0 km/h (0 Bft)
01.04.2013 06:00 -6,8 C 92 % 1012,2 hPa 0,0 l/m 0,0 km/h (0 Bft) N -7,9 C -6,8 C 0,3 km/h (0 Bft)
01.04.2013 07:00 -6,0 C 92 % 1012,1 hPa 0,0 l/m 0,3 km/h (0 Bft) N -7,1 C -6,0 C 1,1 km/h (0 Bft)
01.04.2013 08:00 -3,3 C 87 % 1012,1 hPa 0,0 l/m 0,8 km/h (0 Bft) NW -5,1 C -3,3 C 2,1 km/h (1 Bft)
01.04.2013 09:00 -0,4 C 78 % 1012,2 hPa 0,0 l/m 3,0 km/h (1 Bft) N-NO -3,7 C -0,9 C 6,2 km/h (2 Bft)
01.04.2013 10:00 1,7 C 66 % 1012,3 hPa 0,0 l/m 8,9 km/h (2 Bft) N-NO -3,9 C -0,6 C 13,6 km/h (3 Bft)
01.04.2013 11:00 2,6 C 61 % 1012,4 hPa 0,0 l/m 10,0 km/h (2 Bft) N-NO -4,2 C -0,5 C 16,8 km/h (3 Bft)
01.04.2013 12:00 3,9 C 58 % 1012,1 hPa 0,0 l/m 9,4 km/h (2 Bft) N -3,6 C 1,4 C 16,8 km/h (3 Bft)
01.04.2013 13:00 4,6 C 57 % 1011,9 hPa 0,0 l/m 10,8 km/h (2 Bft) NO -3,2 C 1,2 C 17,4 km/h (3 Bft)
01.04.2013 14:00 4,8 C 56 % 1011,9 hPa 0,0 l/m 8,5 km/h (2 Bft) O-NO -3,1 C 3,1 C 15,8 km/h (3 Bft)
01.04.2013 15:00 4,8 C 58 % 1011,9 hPa 0,0 l/m 8,9 km/h (2 Bft) NO -2,8 C 2,5 C 16,1 km/h (3 Bft)
01.04.2013 16:00 4,5 C 58 % 1012,0 hPa 0,0 l/m 9,8 km/h (2 Bft) NO -3,2 C 1,7 C 14,9 km/h (3 Bft)
01.04.2013 17:00 4,3 C 58 % 1012,0 hPa 0,0 l/m 9,4 km/h (2 Bft) NO -3,2 C 1,9 C 14,0 km/h (3 Bft)
01.04.2013 18:00 3,5 C 59 % 1012,1 hPa 0,0 l/m 7,4 km/h (2 Bft) N-NO -3,8 C 2,3 C 11,3 km/h (2 Bft)
01.04.2013 19:00 2,2 C 62 % 1012,5 hPa 0,0 l/m 7,4 km/h (2 Bft) N-NO -4,2 C 1,1 C 11,0 km/h (2 Bft)
01.04.2013 20:00 0,4 C 71 % 1013,0 hPa 0,0 l/m 3,1 km/h (1 Bft) NO -4,2 C 0,4 C 4,5 km/h (1 Bft)
01.04.2013 21:00 -1,1 C 78 % 1013,3 hPa 0,0 l/m 1,2 km/h (1 Bft) NO -4,4 C -1,1 C 1,5 km/h (1 Bft)
01.04.2013 22:00 -1,7 C 79 % 1013,5 hPa 0,0 l/m 2,7 km/h (1 Bft) N-NO -4,9 C -1,7 C 3,5 km/h (1 Bft)
01.04.2013 23:00 -2,6 C 83 % 1013,7 hPa 0,0 l/m 1,5 km/h (1 Bft) N-NO -5,1 C -2,6 C 2,1 km/h (1 Bft)
02.04.2013 00:00 -3,2 C 86 % 1013,8 hPa 0,0 l/m 0,2 km/h (0 Bft) N-NO -5,2 C -3,2 C 0,4 km/h (0 Bft)
02.04.2013 01:00 -4,3 C 90 % 1014,1 hPa 0,0 l/m 0,0 km/h (0 Bft) N -5,7 C -4,3 C 0,0 km/h (0 Bft)
02.04.2013 02:00 -4,7 C 90 % 1014,2 hPa 0,0 l/m 0,0 km/h (0 Bft) N -6,1 C -4,7 C 0,0 km/h (0 Bft)
02.04.2013 03:00 -4,8 C 90 % 1014,2 hPa 0,0 l/m 0,0 km/h (0 Bft) N -6,1 C -4,8 C 0,0 km/h (0 Bft)
02.04.2013 04:00 -4,3 C 89 % 1014,3 hPa 0,0 l/m 0,0 km/h (0 Bft) N -6,0 C -4,3 C 0,0 km/h (0 Bft)
02.04.2013 05:00 -4,9 C 89 % 1014,4 hPa 0,0 l/m 0,0 km/h (0 Bft) N -6,5 C -4,9 C 0,0 km/h (0 Bft)
02.04.2013 06:00 -5,5 C 91 % 1014,7 hPa 0,0 l/m 0,0 km/h (0 Bft) N -6,8 C -5,5 C 0,0 km/h (0 Bft)
02.04.2013 07:00 -5,1 C 92 % 1014,9 hPa 0,0 l/m 0,5 km/h (0 Bft) N-NW -6,3 C -5,1 C 0,9 km/h (0 Bft)
02.04.2013 08:00 -2,5 C 87 % 1015,4 hPa 0,0 l/m 3,1 km/h (1 Bft) NO -4,3 C -2,5 C 5,1 km/h (1 Bft)
02.04.2013 09:00 -0,0 C 79 % 1015,7 hPa 0,0 l/m 5,8 km/h (2 Bft) O -3,3 C -0,3 C 9,5 km/h (2 Bft)
02.04.2013 10:00 1,5 C 69 % 1016,0 hPa 0,0 l/m 8,0 km/h (2 Bft) O -3,5 C -0,3 C 13,8 km/h (3 Bft)
02.04.2013 11:00 2,0 C 66 % 1016,3 hPa 0,0 l/m 13,5 km/h (3 Bft) O-NO -3,8 C -3,7 C 22,9 km/h (4 Bft)
02.04.2013 12:00 2,4 C 67 % 1016,3 hPa 0,0 l/m 13,6 km/h (3 Bft) O-NO -3,0 C -3,3 C 21,3 km/h (4 Bft)
02.04.2013 13:00 2,8 C 64 % 1016,3 hPa 0,0 l/m 12,3 km/h (2 Bft) O-NO -3,3 C -1,9 C 21,4 km/h (4 Bft)
02.04.2013 14:00 3,0 C 64 % 1016,3 hPa 0,0 l/m 12,0 km/h (2 Bft) NO -3,2 C -1,4 C 21,6 km/h (4 Bft)
02.04.2013 15:00 2,9 C 63 % 1016,4 hPa 0,0 l/m 12,3 km/h (2 Bft) O -3,4 C -1,8 C 22,5 km/h (4 Bft)
02.04.2013 16:00 2,0 C 65 % 1016,8 hPa 0,0 l/m 12,4 km/h (2 Bft) O -3,9 C -3,0 C 20,5 km/h (4 Bft)
02.04.2013 17:00 2,0 C 62 % 1017,0 hPa 0,0 l/m 11,5 km/h (2 Bft) O -4,4 C -2,3 C 19,4 km/h (3 Bft)
02.04.2013 18:00 2,0 C 63 % 1017,2 hPa 0,0 l/m 11,4 km/h (2 Bft) O -4,3 C -2,2 C 19,8 km/h (4 Bft)
02.04.2013 19:00 1,6 C 65 % 1017,6 hPa 0,0 l/m 7,6 km/h (2 Bft) O -4,3 C 0,3 C 12,9 km/h (3 Bft)
02.04.2013 20:00 1,3 C 66 % 1018,2 hPa 0,0 l/m 4,1 km/h (1 Bft) O-NO -4,3 C 1,3 C 7,6 km/h (2 Bft)
02.04.2013 21:00 1,1 C 67 % 1018,7 hPa 0,0 l/m 6,3 km/h (2 Bft) O -4,3 C 0,2 C 12,9 km/h (3 Bft)
02.04.2013 22:00 1,3 C 65 % 1018,9 hPa 0,0 l/m 9,2 km/h (2 Bft) O -4,6 C -1,3 C 17,2 km/h (3 Bft)
02.04.2013 23:00 1,2 C 65 % 1019,1 hPa 0,0 l/m 7,3 km/h (2 Bft) O-NO -4,6 C 0,1 C 14,5 km/h (3 Bft)
03.04.2013 00:00 1,0 C 67 % 1019,3 hPa 0,0 l/m 7,4 km/h (2 Bft) O -4,4 C -0,3 C 14,2 km/h (3 Bft)
03.04.2013 01:00 0,9 C 67 % 1019,4 hPa 0,0 l/m 7,4 km/h (2 Bft) O-NO -4,6 C -0,2 C 15,2 km/h (3 Bft)
03.04.2013 02:00 -0,1 C 74 % 1019,5 hPa 0,0 l/m 5,3 km/h (1 Bft) NO -4,3 C -0,1 C 9,0 km/h (2 Bft)
03.04.2013 03:00 -1,5 C 82 % 1019,6 hPa 0,0 l/m 6,5 km/h (2 Bft) NO -4,1 C -2,1 C 10,1 km/h (2 Bft)
03.04.2013 04:00 -1,9 C 87 % 1019,8 hPa 0,0 l/m 7,2 km/h (2 Bft) NO -3,8 C -2,9 C 10,9 km/h (2 Bft)
03.04.2013 05:00 -2,2 C 89 % 1020,1 hPa 0,0 l/m 6,0 km/h (2 Bft) NO -3,8 C -2,2 C 8,7 km/h (2 Bft)
03.04.2013 06:00 -2,6 C 90 % 1020,4 hPa 0,0 l/m 7,0 km/h (2 Bft) NO -4,0 C -3,3 C 9,8 km/h (2 Bft)
03.04.2013 07:00 -2,4 C 90 % 1020,5 hPa 0,0 l/m 9,0 km/h (2 Bft) NO -3,8 C -5,1 C 13,3 km/h (3 Bft)
03.04.2013 08:00 -1,6 C 88 % 1020,5 hPa 0,0 l/m 9,8 km/h (2 Bft) NO -3,3 C -5,1 C 15,2 km/h (3 Bft)
03.04.2013 09:00 0,1 C 81 % 1020,6 hPa 0,0 l/m 10,7 km/h (2 Bft) NO -2,7 C -3,9 C 16,1 km/h (3 Bft)
03.04.2013 10:00 1,7 C 70 % 1020,7 hPa 0,0 l/m 11,5 km/h (2 Bft) O-NO -3,2 C -2,7 C 20,2 km/h (4 Bft)
03.04.2013 11:00 2,7 C 62 % 1020,6 hPa 0,0 l/m 15,3 km/h (3 Bft) O -4,0 C -3,9 C 27,0 km/h (4 Bft)
03.04.2013 12:00 3,1 C 59 % 1020,4 hPa 0,0 l/m 15,0 km/h (3 Bft) O-NO -4,0 C -3,2 C 25,9 km/h (4 Bft)
03.04.2013 13:00 3,7 C 61 % 1020,1 hPa 0,0 l/m 14,9 km/h (3 Bft) O-NO -3,2 C -2,4 C 25,1 km/h (4 Bft)
03.04.2013 14:00 4,0 C 58 % 1019,7 hPa 0,0 l/m 15,3 km/h (3 Bft) O-NO -3,6 C -2,3 C 25,9 km/h (4 Bft)
03.04.2013 15:00 4,4 C 57 % 1019,3 hPa 0,0 l/m 13,5 km/h (3 Bft) O -3,3 C -0,8 C 24,0 km/h (4 Bft)
03.04.2013 16:00 3,6 C 60 % 1019,1 hPa 0,0 l/m 13,2 km/h (3 Bft) O-NO -3,5 C -1,5 C 23,8 km/h (4 Bft)
03.04.2013 17:00 2,3 C 62 % 1019,4 hPa 0,0 l/m 15,3 km/h (3 Bft) O-NO -4,3 C -4,4 C 26,1 km/h (4 Bft)
03.04.2013 18:00 1,6 C 62 % 1019,3 hPa 0,0 l/m 11,8 km/h (2 Bft) O -4,8 C -2,7 C 21,7 km/h (4 Bft)
03.04.2013 19:00 1,5 C 65 % 1019,2 hPa 0,0 l/m 7,4 km/h (2 Bft) O -4,4 C 0,5 C 13,3 km/h (3 Bft)
03.04.2013 20:00 1,3 C 68 % 1019,3 hPa 0,0 l/m 5,1 km/h (1 Bft) O-NO -4,0 C 1,3 C 9,1 km/h (2 Bft)
03.04.2013 21:00 1,0 C 72 % 1019,3 hPa 0,0 l/m 3,7 km/h (1 Bft) O-NO -3,5 C 1,0 C 6,3 km/h (2 Bft)
03.04.2013 22:00 0,5 C 77 % 1019,1 hPa 0,0 l/m 3,1 km/h (1 Bft) NO -3,1 C 0,5 C 4,9 km/h (1 Bft)
03.04.2013 23:00 0,0 C 81 % 1018,8 hPa 0,0 l/m 3,1 km/h (1 Bft) NO -2,9 C 0,0 C 4,7 km/h (1 Bft)
04.04.2013 00:00 0,2 C 80 % 1018,6 hPa 0,0 l/m 4,1 km/h (1 Bft) O-NO -2,9 C 0,2 C 8,2 km/h (2 Bft)
04.04.2013 01:00 -0,6 C 85 % 1018,3 hPa 0,0 l/m 5,8 km/h (2 Bft) NO -2,8 C -0,7 C 9,5 km/h (2 Bft)
04.04.2013 02:00 -1,3 C 88 % 1018,1 hPa 0,0 l/m 5,9 km/h (2 Bft) NO -3,0 C -1,3 C 9,1 km/h (2 Bft)
04.04.2013 03:00 -1,8 C 89 % 1017,9 hPa 0,0 l/m 4,4 km/h (1 Bft) NO -3,3 C -1,8 C 7,8 km/h (2 Bft)
04.04.2013 04:00 -1,6 C 90 % 1017,6 hPa 0,0 l/m 7,1 km/h (2 Bft) NO -3,1 C -2,7 C 11,4 km/h (2 Bft)
04.04.2013 05:00 -1,5 C 90 % 1017,2 hPa 0,0 l/m 9,3 km/h (2 Bft) NO -2,9 C -4,4 C 14,8 km/h (3 Bft)
04.04.2013 06:00 -1,8 C 91 % 1017,1 hPa 0,0 l/m 8,0 km/h (2 Bft) NO -3,1 C -3,5 C 12,0 km/h (2 Bft)
04.04.2013 07:00 -1,8 C 91 % 1016,9 hPa 0,0 l/m 11,1 km/h (2 Bft) NO -3,0 C -6,3 C 16,5 km/h (3 Bft)
04.04.2013 08:00 -1,2 C 90 % 1016,9 hPa 0,0 l/m 9,3 km/h (2 Bft) NO -2,6 C -4,0 C 14,2 km/h (3 Bft)
04.04.2013 09:00 -0,1 C 86 % 1016,9 hPa 0,0 l/m 10,1 km/h (2 Bft) NO -2,1 C -3,5 C 15,7 km/h (3 Bft)
04.04.2013 10:00 0,7 C 83 % 1016,8 hPa 0,0 l/m 11,3 km/h (2 Bft) NO -1,8 C -3,6 C 17,3 km/h (3 Bft)
04.04.2013 11:00 1,5 C 81 % 1016,7 hPa 0,0 l/m 13,2 km/h (3 Bft) NO -1,3 C -4,0 C 19,4 km/h (3 Bft)
04.04.2013 12:00 2,1 C 81 % 1016,5 hPa 0,0 l/m 11,7 km/h (2 Bft) NO -0,8 C -2,4 C 17,7 km/h (3 Bft)
04.04.2013 13:00 2,7 C 78 % 1016,3 hPa 0,0 l/m 9,9 km/h (2 Bft) O-NO -0,7 C -0,3 C 16,6 km/h (3 Bft)
04.04.2013 14:00 3,3 C 75 % 1015,9 hPa 0,0 l/m 11,2 km/h (2 Bft) O-NO -0,7 C -0,6 C 19,2 km/h (3 Bft)
04.04.2013 15:00 3,9 C 72 % 1015,3 hPa 0,0 l/m 10,6 km/h (2 Bft) O-NO -0,6 C 0,5 C 19,6 km/h (3 Bft)
04.04.2013 16:00 4,4 C 70 % 1014,7 hPa 0,0 l/m 9,2 km/h (2 Bft) O-NO -0,5 C 2,1 C 16,0 km/h (3 Bft)
04.04.2013 17:00 4,4 C 70 % 1014,5 hPa 0,0 l/m 9,7 km/h (2 Bft) O-NO -0,7 C 1,7 C 16,6 km/h (3 Bft)
04.04.2013 18:00 3,7 C 72 % 1014,6 hPa 0,0 l/m 10,7 km/h (2 Bft) O-NO -0,9 C 0,2 C 18,6 km/h (3 Bft)
04.04.2013 19:00 3,0 C 75 % 1014,6 hPa 0,0 l/m 8,8 km/h (2 Bft) O-NO -1,0 C 0,9 C 17,3 km/h (3 Bft)
04.04.2013 20:00 2,7 C 78 % 1014,4 hPa 0,0 l/m 7,0 km/h (2 Bft) O-NO -0,9 C 1,8 C 12,8 km/h (3 Bft)
04.04.2013 21:00 2,3 C 80 % 1014,7 hPa 0,0 l/m 8,0 km/h (2 Bft) O-NO -0,7 C 0,7 C 14,8 km/h (3 Bft)
04.04.2013 22:00 2,0 C 81 % 1014,6 hPa 0,0 l/m 6,2 km/h (2 Bft) O-NO -0,9 C 1,6 C 11,7 km/h (2 Bft)
04.04.2013 23:00 1,7 C 82 % 1014,4 hPa 0,0 l/m 6,1 km/h (2 Bft) O-NO -1,0 C 1,3 C 10,6 km/h (2 Bft)
05.04.2013 00:00 1,6 C 82 % 1014,2 hPa 0,0 l/m 7,7 km/h (2 Bft) O-NO -1,2 C 0,1 C 13,4 km/h (3 Bft)
05.04.2013 01:00 1,3 C 84 % 1013,9 hPa 0,0 l/m 7,0 km/h (2 Bft) O-NO -1,1 C 0,5 C 13,4 km/h (3 Bft)
05.04.2013 02:00 1,0 C 87 % 1013,3 hPa 0,0 l/m 7,1 km/h (2 Bft) NO -1,0 C 0,2 C 11,4 km/h (2 Bft)
05.04.2013 03:00 0,8 C 88 % 1012,7 hPa 0,0 l/m 7,7 km/h (2 Bft) NO -0,9 C -0,6 C 11,7 km/h (2 Bft)
05.04.2013 04:00 0,7 C 89 % 1012,5 hPa 0,0 l/m 7,7 km/h (2 Bft) NO -0,9 C -0,6 C 11,8 km/h (2 Bft)
05.04.2013 05:00 0,6 C 90 % 1012,1 hPa 0,0 l/m 8,2 km/h (2 Bft) NO -0,9 C -1,2 C 12,6 km/h (3 Bft)
05.04.2013 06:00 0,3 C 92 % 1012,0 hPa 0,0 l/m 8,4 km/h (2 Bft) N-NO -0,9 C -1,7 C 12,2 km/h (2 Bft)
05.04.2013 07:00 0,3 C 92 % 1011,9 hPa 0,0 l/m 8,6 km/h (2 Bft) NO -0,8 C -1,9 C 12,8 km/h (3 Bft)
05.04.2013 08:00 0,4 C 93 % 1011,8 hPa 0,0 l/m 9,9 km/h (2 Bft) NO -0,6 C -2,8 C 15,2 km/h (3 Bft)
05.04.2013 09:00 0,8 C 93 % 1011,8 hPa 0,0 l/m 9,9 km/h (2 Bft) NO -0,2 C -2,5 C 14,9 km/h (3 Bft)
05.04.2013 10:00 1,2 C 91 % 1012,2 hPa 0,0 l/m 10,0 km/h (2 Bft) NO -0,1 C -2,1 C 15,4 km/h (3 Bft)
05.04.2013 11:00 1,8 C 89 % 1012,1 hPa 0,0 l/m 10,8 km/h (2 Bft) NO 0,1 C -2,0 C 17,0 km/h (3 Bft)
05.04.2013 12:00 2,2 C 86 % 1012,0 hPa 0,0 l/m 10,5 km/h (2 Bft) NO 0,2 C -1,3 C 15,6 km/h (3 Bft)
05.04.2013 13:00 2,6 C 85 % 1011,9 hPa 0,0 l/m 9,9 km/h (2 Bft) NO 0,3 C -0,4 C 14,8 km/h (3 Bft)
05.04.2013 14:00 2,9 C 84 % 1011,9 hPa 0,0 l/m 11,3 km/h (2 Bft) NO 0,6 C -1,1 C 17,6 km/h (3 Bft)
05.04.2013 15:00 3,3 C 83 % 1011,8 hPa 0,0 l/m 11,5 km/h (2 Bft) NO 0,7 C -0,9 C 16,9 km/h (3 Bft)
05.04.2013 16:00 3,4 C 83 % 1011,9 hPa 0,0 l/m 11,3 km/h (2 Bft) NO 0,8 C -0,6 C 17,2 km/h (3 Bft)
05.04.2013 17:00 3,2 C 83 % 1012,2 hPa 0,0 l/m 13,1 km/h (3 Bft) N-NO 0,7 C -2,0 C 18,8 km/h (3 Bft)
05.04.2013 18:00 3,0 C 84 % 1012,5 hPa 0,0 l/m 11,0 km/h (2 Bft) NO 0,7 C -0,8 C 16,9 km/h (3 Bft)
05.04.2013 19:00 2,8 C 86 % 1013,0 hPa 0,0 l/m 8,5 km/h (2 Bft) NO 0,7 C 0,9 C 13,8 km/h (3 Bft)
05.04.2013 20:00 2,5 C 87 % 1013,8 hPa 0,0 l/m 10,7 km/h (2 Bft) NO 0,5 C -1,2 C 16,2 km/h (3 Bft)
05.04.2013 21:00 2,2 C 88 % 1014,7 hPa 0,0 l/m 10,6 km/h (2 Bft) NO 0,3 C -1,4 C 16,8 km/h (3 Bft)
05.04.2013 22:00 1,9 C 87 % 1015,1 hPa 0,0 l/m 9,9 km/h (2 Bft) NO -0,0 C -1,2 C 15,4 km/h (3 Bft)
05.04.2013 23:00 1,7 C 88 % 1015,4 hPa 0,0 l/m 8,7 km/h (2 Bft) NO -0,1 C -0,5 C 12,6 km/h (3 Bft)
06.04.2013 00:00 1,4 C 88 % 1015,6 hPa 0,0 l/m 8,2 km/h (2 Bft) NO -0,3 C -0,3 C 12,2 km/h (2 Bft)
06.04.2013 01:00 1,1 C 89 % 1015,8 hPa 0,0 l/m 9,2 km/h (2 Bft) NO -0,4 C -1,5 C 14,2 km/h (3 Bft)
06.04.2013 02:00 0,9 C 90 % 1016,1 hPa 0,0 l/m 9,4 km/h (2 Bft) NO -0,6 C -2,0 C 14,6 km/h (3 Bft)
06.04.2013 03:00 0,7 C 89 % 1016,3 hPa 0,0 l/m 9,9 km/h (2 Bft) N-NO -0,9 C -2,5 C 14,4 km/h (3 Bft)
06.04.2013 04:00 0,6 C 89 % 1016,5 hPa 0,0 l/m 9,1 km/h (2 Bft) N-NO -1,0 C -2,0 C 12,9 km/h (3 Bft)
06.04.2013 05:00 0,2 C 90 % 1016,8 hPa 0,0 l/m 5,1 km/h (1 Bft) N-NO -1,3 C 0,2 C 7,6 km/h (2 Bft)
06.04.2013 06:00 -0,1 C 91 % 1017,2 hPa 0,0 l/m 5,4 km/h (1 Bft) N -1,4 C -0,1 C 7,2 km/h (2 Bft)
06.04.2013 07:00 0,1 C 91 % 1017,9 hPa 0,0 l/m 6,1 km/h (2 Bft) N -1,3 C -0,2 C 8,0 km/h (2 Bft)
06.04.2013 08:00 0,9 C 88 % 1018,5 hPa 0,0 l/m 7,7 km/h (2 Bft) N-NO -0,8 C -0,4 C 12,8 km/h (3 Bft)
06.04.2013 09:00 1,7 C 86 % 1018,9 hPa 0,0 l/m 10,0 km/h (2 Bft) NO -0,5 C -1,5 C 15,3 km/h (3 Bft)
06.04.2013 10:00 2,6 C 80 % 1019,2 hPa 0,0 l/m 10,6 km/h (2 Bft) NO -0,4 C -0,8 C 16,5 km/h (3 Bft)
06.04.2013 11:00 3,4 C 74 % 1019,6 hPa 0,0 l/m 10,9 km/h (2 Bft) N -0,9 C -0,3 C 18,4 km/h (3 Bft)
06.04.2013 12:00 4,3 C 67 % 1019,9 hPa 0,0 l/m 12,7 km/h (3 Bft) NO -1,4 C -0,5 C 20,6 km/h (4 Bft)
06.04.2013 13:00 5,3 C 57 % 1019,8 hPa 0,0 l/m 12,6 km/h (3 Bft) NO -2,5 C 0,8 C 21,7 km/h (4 Bft)
06.04.2013 14:00 6,1 C 54 % 1019,7 hPa 0,0 l/m 11,1 km/h (2 Bft) N-NO -2,7 C 2,6 C 19,7 km/h (3 Bft)
06.04.2013 15:00 7,0 C 54 % 1019,4 hPa 0,0 l/m 11,4 km/h (2 Bft) N-NO -1,8 C 3,4 C 19,6 km/h (3 Bft)
06.04.2013 16:00 7,1 C 53 % 1019,4 hPa 0,0 l/m 7,8 km/h (2 Bft) NO -1,9 C 5,9 C 16,0 km/h (3 Bft)
06.04.2013 17:00 7,3 C 51 % 1019,4 hPa 0,0 l/m 6,4 km/h (2 Bft) NO -2,2 C 6,3 C 11,4 km/h (2 Bft)
06.04.2013 18:00 7,0 C 52 % 1019,5 hPa 0,0 l/m 6,2 km/h (2 Bft) NO -2,0 C 6,5 C 9,9 km/h (2 Bft)
06.04.2013 19:00 6,6 C 53 % 1020,0 hPa 0,0 l/m 2,1 km/h (1 Bft) O-NO -2,3 C 6,6 C 4,4 km/h (1 Bft)
06.04.2013 20:00 5,1 C 61 % 1020,7 hPa 0,0 l/m 0,1 km/h (0 Bft) N -1,9 C 5,1 C 0,1 km/h (0 Bft)
06.04.2013 21:00 1,5 C 77 % 1021,4 hPa 0,0 l/m 0,8 km/h (0 Bft) N-NW -2,0 C 1,5 C 2,1 km/h (1 Bft)
06.04.2013 22:00 0,2 C 80 % 1021,8 hPa 0,0 l/m 0,4 km/h (0 Bft) N-NW -2,8 C 0,2 C 0,8 km/h (0 Bft)
06.04.2013 23:00 -1,6 C 88 % 1022,1 hPa 0,0 l/m 0,0 km/h (0 Bft) N -3,4 C -1,6 C 0,0 km/h (0 Bft)
07.04.2013 00:00 -2,7 C 90 % 1022,3 hPa 0,0 l/m 0,0 km/h (0 Bft) N -4,1 C -2,7 C 0,0 km/h (0 Bft)
07.04.2013 01:00 -3,2 C 91 % 1022,4 hPa 0,0 l/m 0,0 km/h (0 Bft) N -4,4 C -3,2 C 0,0 km/h (0 Bft)
07.04.2013 02:00 -3,5 C 93 % 1022,3 hPa 0,0 l/m 0,0 km/h (0 Bft) N -4,5 C -3,5 C 0,0 km/h (0 Bft)
07.04.2013 03:00 -2,8 C 93 % 1022,3 hPa 0,0 l/m 0,0 km/h (0 Bft) N -3,9 C -2,8 C 0,0 km/h (0 Bft)
07.04.2013 04:00 -3,3 C 93 % 1022,2 hPa 0,0 l/m 0,0 km/h (0 Bft) N -4,3 C -3,3 C 0,0 km/h (0 Bft)
07.04.2013 05:00 -4,4 C 93 % 1022,0 hPa 0,0 l/m 0,0 km/h (0 Bft) N -5,4 C -4,4 C 0,0 km/h (0 Bft)
07.04.2013 06:00 -4,9 C 94 % 1022,2 hPa 0,0 l/m 0,0 km/h (0 Bft) N -5,7 C -4,9 C 0,0 km/h (0 Bft)
07.04.2013 07:00 -3,5 C 94 % 1022,5 hPa 0,0 l/m 0,0 km/h (0 Bft) N -4,4 C -3,5 C 0,0 km/h (0 Bft)
07.04.2013 08:00 -0,4 C 91 % 1022,8 hPa 0,0 l/m 0,1 km/h (0 Bft) N -1,8 C -0,4 C 0,4 km/h (0 Bft)
07.04.2013 09:00 2,9 C 85 % 1022,9 hPa 0,0 l/m 2,3 km/h (1 Bft) W-NW 0,6 C 2,9 C 5,9 km/h (2 Bft)
07.04.2013 10:00 4,3 C 81 % 1022,9 hPa 0,0 l/m 4,0 km/h (1 Bft) W 1,3 C 4,3 C 9,0 km/h (2 Bft)
07.04.2013 11:00 5,4 C 76 % 1022,7 hPa 0,0 l/m 5,1 km/h (1 Bft) NW 1,5 C 5,4 C 10,9 km/h (2 Bft)
07.04.2013 12:00 6,1 C 70 % 1022,1 hPa 0,0 l/m 5,1 km/h (1 Bft) NW 1,0 C 6,0 C 10,4 km/h (2 Bft)
07.04.2013 13:00 7,1 C 61 % 1021,2 hPa 0,0 l/m 4,9 km/h (1 Bft) W-NW 0,1 C 7,1 C 10,9 km/h (2 Bft)
07.04.2013 14:00 8,1 C 56 % 1020,4 hPa 0,0 l/m 5,1 km/h (1 Bft) NW -0,1 C 8,0 C 11,6 km/h (2 Bft)
07.04.2013 15:00 8,5 C 52 % 1019,8 hPa 0,0 l/m 6,0 km/h (2 Bft) NW -0,7 C 8,2 C 14,2 km/h (3 Bft)
07.04.2013 16:00 8,1 C 51 % 1019,2 hPa 0,0 l/m 4,2 km/h (1 Bft) W-NW -1,3 C 8,1 C 9,3 km/h (2 Bft)
07.04.2013 17:00 8,6 C 49 % 1018,6 hPa 0,0 l/m 5,5 km/h (2 Bft) N-NW -1,5 C 8,3 C 11,3 km/h (2 Bft)
07.04.2013 18:00 8,4 C 47 % 1017,9 hPa 0,0 l/m 2,4 km/h (1 Bft) W-NW -2,2 C 8,4 C 6,1 km/h (2 Bft)
07.04.2013 19:00 7,9 C 47 % 1017,6 hPa 0,0 l/m 1,1 km/h (1 Bft) W-SW -2,7 C 7,9 C 4,0 km/h (1 Bft)
07.04.2013 20:00 5,0 C 57 % 1017,6 hPa 0,0 l/m 0,1 km/h (0 Bft) N -2,8 C 5,0 C 0,4 km/h (0 Bft)
07.04.2013 21:00 1,3 C 76 % 1017,5 hPa 0,0 l/m 0,0 km/h (0 Bft) N -2,4 C 1,3 C 0,0 km/h (0 Bft)
07.04.2013 22:00 -0,5 C 86 % 1017,1 hPa 0,0 l/m 0,0 km/h (0 Bft) N -2,6 C -0,5 C 0,0 km/h (0 Bft)
07.04.2013 23:00 -1,8 C 87 % 1016,6 hPa 0,0 l/m 0,0 km/h (0 Bft) N -3,6 C -1,8 C 0,0 km/h (0 Bft)
Min-Datum _ 01.04.13 07.04.13 05.04.13 - 01.04.13 - 01.04.13 04.04.13 01.04.13
_ Min-Zeit 06:10 17:55 15:40 - 00:20 - 06:05 07:55 00:20
Minimum _ -7,2 C 44 % 1011,6 hPa - 0,0 km/h (0 Bft) - -8,3 C -7,4 C 0,0 km/h (0 Bft)
Max-Datum _ 07.04.13 07.04.13 07.04.13 01.04.13 03.04.13 - 07.04.13 07.04.13 06.04.13
_ Max-Zeit 14:55 06:05 10:00 00:00 11:55 - 11:35 14:55 13:35
Maximum _ 8,9 C 95 % 1023,0 hPa 0,0 l/m 17,9 km/h
O (3 Bft)
- 2,0 C 8,9 C 38,6 km/h
N (6 Bft)
Durchschnitt _ 1,1 C 77 % 1016,7 hPa #0,0 l/m 6,8 km/h (2 Bft) NO -2,7 C -0,7 C 11,3 km/h (2 Bft)